Seattle, Washington
Traffic Map
Current Weather Conditions
Seattle, Washington
Overcast Light Rain
Overcast
46°
Feels Like: 44°
Wind Chill: 44° Ceiling: 1100
Heat Index: 46° Visibility: 10mi
Dew Point: 45° Wind: 5mph
Humidity: 96% Direction: 120° (ESE)
Pressure: 29.72in Gusts: 0mph
Raw Report DataKBFI 210153Z 12004KT 10SM -RA BKN011 OVC029 08/07 A2972 RMK AO2 RAB36 SLP062 P0000 T00780072
Traffic Incident Summary
Active as of:
Severity:
Category:
InformationThere was an issue retrieving the traffic information for this location. Please try a different location or try again shortly.
Advertisements
Track Severe Weather on mobile